Time;durP1;ratioP1;P1;durP2;ratioP2;P2;SDS_P1;SDS_P2;PMS_P1;PMS_P2;Temp;Humidity;BMP_temperature;BMP_pressure;BME280_temperature;BME280_humidity;BME280_pressure;Samples;Min_cycle;Max_cycle;Signal;HPM_P1;HPM_P2
2022/12/08 00:01:38;;;;;;;11.90;7.00;;;5.10;99.90;;;;;;5054640;28;20537;-74
2022/12/08 00:04:04;;;;;;;14.87;8.60;;;5.10;99.90;;;;;;5053267;28;20445;-75
2022/12/08 00:09:23;;;;;;;9.93;7.40;;;5.00;99.90;;;;;;5054869;28;20404;-75
2022/12/08 00:11:53;;;;;;;14.73;8.97;;;5.10;99.90;;;;;;5054408;28;20500;-74
2022/12/08 00:14:21;;;;;;;17.30;8.70;;;5.10;99.90;;;;;;5054064;28;20425;-75
2022/12/08 00:16:47;;;;;;;17.13;7.60;;;5.10;99.90;;;;;;5054238;28;20445;-75
2022/12/08 00:19:13;;;;;;;12.57;8.80;;;5.10;99.90;;;;;;5054440;28;20745;-74
2022/12/08 00:21:38;;;;;;;14.60;7.73;;;5.10;99.90;;;;;;5053021;28;20167;-74
2022/12/08 00:24:04;;;;;;;15.60;8.30;;;5.10;99.90;;;;;;5054155;28;20648;-75
2022/12/08 00:26:29;;;;;;;12.70;7.87;;;5.10;99.90;;;;;;5053921;28;20175;-75
2022/12/08 00:28:55;;;;;;;13.20;8.30;;;5.10;99.90;;;;;;5052846;28;20175;-75
2022/12/08 00:31:20;;;;;;;17.33;9.00;;;5.10;99.90;;;;;;5053960;28;20558;-74
2022/12/08 00:33:46;;;;;;;14.00;9.73;;;5.10;99.90;;;;;;5054058;28;20195;-75
2022/12/08 00:36:13;;;;;;;14.13;8.63;;;5.20;99.90;;;;;;5053634;28;20183;-74
2022/12/08 00:38:39;;;;;;;13.00;8.27;;;5.10;99.90;;;;;;5054060;28;20175;-74
2022/12/08 00:41:12;;;;;;;10.13;6.40;;;5.10;99.90;;;;;;5053885;28;20899;-75
2022/12/08 00:43:38;;;;;;;11.90;8.10;;;5.10;99.90;;;;;;5053957;28;20433;-75
2022/12/08 00:46:03;;;;;;;15.87;8.10;;;5.00;99.90;;;;;;5052321;28;20409;-75
2022/12/08 00:48:29;;;;;;;11.90;9.50;;;5.00;99.90;;;;;;5053725;28;20664;-74
2022/12/08 00:50:55;;;;;;;16.07;9.90;;;5.00;99.90;;;;;;5053871;28;20237;-74
2022/12/08 00:53:20;;;;;;;16.30;9.77;;;5.00;99.90;;;;;;5053677;28;20198;-75
2022/12/08 00:55:46;;;;;;;14.10;8.67;;;5.00;99.90;;;;;;5053357;28;20541;-74
2022/12/08 00:58:11;;;;;;;18.63;11.23;;;5.00;99.90;;;;;;5053330;28;20198;-74
2022/12/08 01:00:40;;;;;;;16.43;8.33;;;5.00;99.90;;;;;;5053663;28;20222;-74
2022/12/08 01:03:05;;;;;;;15.50;9.37;;;4.90;99.90;;;;;;5053504;28;20193;-74
2022/12/08 01:05:31;;;;;;;15.03;9.00;;;4.90;99.90;;;;;;5053215;28;20537;-74
2022/12/08 01:07:56;;;;;;;15.37;9.30;;;4.90;99.90;;;;;;5053422;28;20175;-75
2022/12/08 01:10:22;;;;;;;13.37;9.47;;;5.00;99.90;;;;;;5053330;28;20206;-74
2022/12/08 01:12:47;;;;;;;19.30;11.00;;;5.00;99.90;;;;;;5053178;28;20205;-74
2022/12/08 01:15:13;;;;;;;16.27;10.97;;;5.00;99.90;;;;;;5053027;28;20186;-74
2022/12/08 01:17:38;;;;;;;18.13;11.20;;;5.00;99.90;;;;;;5053173;28;20206;-74
2022/12/08 01:20:05;;;;;;;18.90;11.80;;;5.10;99.90;;;;;;5053252;28;20163;-74
2022/12/08 01:22:32;;;;;;;15.37;10.97;;;5.00;99.90;;;;;;5053149;28;20217;-74
2022/12/08 01:24:58;;;;;;;17.53;11.83;;;5.00;99.90;;;;;;5052756;28;20408;-74
2022/12/08 01:27:23;;;;;;;22.00;11.80;;;5.10;99.90;;;;;;5053310;28;20906;-74
2022/12/08 01:29:49;;;;;;;15.93;10.83;;;5.10;99.90;;;;;;5053000;28;20163;-74
2022/12/08 01:32:14;;;;;;;16.93;10.37;;;5.00;99.90;;;;;;5052875;28;20183;-74
2022/12/08 01:34:40;;;;;;;13.87;9.77;;;5.00;99.90;;;;;;5051304;28;20279;-74
2022/12/08 01:37:06;;;;;;;14.73;10.17;;;5.00;99.90;;;;;;5052845;28;20193;-75
2022/12/08 01:39:31;;;;;;;19.83;10.90;;;5.00;99.90;;;;;;5052733;28;20191;-74
2022/12/08 01:41:57;;;;;;;16.03;8.80;;;5.10;99.90;;;;;;5051491;28;20690;-74
2022/12/08 01:44:22;;;;;;;14.77;8.90;;;5.10;99.90;;;;;;5052361;28;20735;-74
2022/12/08 01:46:50;;;;;;;14.87;9.67;;;5.20;99.90;;;;;;5051541;28;20186;-75
2022/12/08 01:49:18;;;;;;;18.80;10.00;;;5.20;99.90;;;;;;5051365;28;20199;-74
2022/12/08 01:51:59;;;;;;;15.33;8.23;;;5.20;99.90;;;;;;5052631;28;20405;-74
2022/12/08 01:54:30;;;;;;;15.20;8.40;;;5.20;99.90;;;;;;5052156;28;20487;-75
2022/12/08 01:56:55;;;;;;;15.40;8.83;;;5.30;99.90;;;;;;5052496;28;20455;-75
2022/12/08 01:59:22;;;;;;;12.27;8.07;;;5.30;99.90;;;;;;5052482;28;20489;-74
2022/12/08 02:01:48;;;;;;;11.70;8.27;;;5.30;99.90;;;;;;5052472;28;20222;-75
2022/12/08 02:04:13;;;;;;;11.27;7.83;;;5.30;99.90;;;;;;5052117;28;20429;-74
2022/12/08 02:06:42;;;;;;;12.77;8.10;;;5.30;99.90;;;;;;5052257;28;20175;-74
2022/12/08 02:09:07;;;;;;;15.07;8.20;;;5.30;99.90;;;;;;5051627;28;20163;-74
2022/12/08 02:11:33;;;;;;;10.10;8.47;;;5.40;99.90;;;;;;5052304;28;20406;-74
2022/12/08 02:14:02;;;;;;;17.63;9.33;;;5.40;99.90;;;;;;5052191;28;20584;-74
2022/12/08 02:17:03;;;;;;;10.23;6.03;;;5.40;99.90;;;;;;5052008;28;20182;-74
2022/12/08 02:20:02;;;;;;;13.10;7.10;;;5.40;99.90;;;;;;5035239;28;20936;-74
2022/12/08 02:22:40;;;;;;;9.77;5.90;;;5.40;99.90;;;;;;5052112;28;20397;-74
2022/12/08 02:25:15;;;;;;;7.50;5.60;;;5.40;99.90;;;;;;5050460;28;20903;-74
2022/12/08 02:27:59;;;;;;;7.63;6.10;;;5.40;99.90;;;;;;5052041;28;20435;-74
2022/12/08 02:30:45;;;;;;;11.17;6.90;;;5.30;99.90;;;;;;5051988;28;20433;-74
2022/12/08 02:33:44;;;;;;;11.53;6.90;;;5.30;99.90;;;;;;5051543;28;20429;-74
2022/12/08 02:36:23;;;;;;;14.23;6.70;;;5.30;99.90;;;;;;5051720;28;20408;-74
2022/12/08 02:39:07;;;;;;;8.07;6.30;;;5.30;99.90;;;;;;5051968;28;20424;-74
2022/12/08 02:42:01;;;;;;;7.07;6.10;;;5.20;99.90;;;;;;5051965;28;20401;-74
2022/12/08 02:44:28;;;;;;;8.13;5.73;;;5.30;99.90;;;;;;5051610;28;20432;-74
2022/12/08 02:47:04;;;;;;;9.83;5.03;;;5.30;99.90;;;;;;5052005;28;20404;-75
2022/12/08 02:49:33;;;;;;;7.80;4.97;;;5.20;99.90;;;;;;5052064;28;20397;-75
2022/12/08 02:52:26;;;;;;;7.37;5.80;;;5.30;99.90;;;;;;5050753;28;20418;-74
2022/12/08 02:55:03;;;;;;;8.53;4.70;;;5.30;99.90;;;;;;5051438;28;20467;-75
2022/12/08 02:57:35;;;;;;;9.37;6.33;;;5.30;99.90;;;;;;5051671;28;20518;-74
2022/12/08 03:00:09;;;;;;;9.30;5.80;;;5.30;99.90;;;;;;5051763;28;20412;-74
2022/12/08 03:02:55;;;;;;;6.47;4.60;;;5.30;99.90;;;;;;5050270;28;20429;-74
2022/12/08 03:05:45;;;;;;;7.83;5.10;;;5.40;99.90;;;;;;5051560;28;20405;-74
2022/12/08 03:08:17;;;;;;;11.93;4.90;;;5.40;99.90;;;;;;5051658;28;20405;-74
2022/12/08 03:11:00;;;;;;;9.50;5.70;;;5.40;99.90;;;;;;5050322;28;20523;-74
2022/12/08 03:13:35;;;;;;;9.90;5.60;;;5.40;99.90;;;;;;5051520;28;20457;-75
2022/12/08 03:16:04;;;;;;;7.63;5.70;;;5.40;99.90;;;;;;5051332;28;20405;-75
2022/12/08 03:18:31;;;;;;;8.90;5.00;;;5.40;99.90;;;;;;5050231;28;20457;-74
2022/12/08 03:20:58;;;;;;;9.40;6.10;;;5.40;99.90;;;;;;5051650;28;20409;-75
2022/12/08 03:23:24;;;;;;;7.23;5.10;;;5.40;99.90;;;;;;5055283;28;20798;-74
2022/12/08 03:26:11;;;;;;;14.53;5.57;;;5.40;99.90;;;;;;5055003;28;20429;-75
2022/12/08 03:28:37;;;;;;;11.33;6.50;;;5.40;99.90;;;;;;5055374;28;20437;-75
2022/12/08 03:31:08;;;;;;;10.70;5.57;;;5.40;99.90;;;;;;5055122;28;20425;-74
2022/12/08 03:33:42;;;;;;;11.40;5.33;;;5.40;99.90;;;;;;5053943;28;21007;-74
2022/12/08 03:36:09;;;;;;;8.90;6.03;;;5.40;99.90;;;;;;5054821;28;20467;-74
2022/12/08 03:38:44;;;;;;;10.80;6.43;;;5.40;99.90;;;;;;5055056;28;20456;-74
2022/12/08 03:41:19;;;;;;;8.13;5.77;;;5.30;99.90;;;;;;5053843;28;20482;-75
2022/12/08 03:43:50;;;;;;;9.37;5.50;;;5.30;99.90;;;;;;5054917;28;20425;-75
2022/12/08 03:46:17;;;;;;;11.80;7.30;;;5.30;99.90;;;;;;5054760;28;20401;-75
2022/12/08 03:48:43;;;;;;;10.43;6.17;;;5.30;99.90;;;;;;5054932;28;20409;-75
2022/12/08 03:51:08;;;;;;;10.50;7.00;;;5.30;99.90;;;;;;5053587;28;20508;-74
2022/12/08 03:53:34;;;;;;;14.40;5.43;;;5.30;99.90;;;;;;5054757;28;20191;-75
2022/12/08 03:55:59;;;;;;;10.20;7.07;;;5.30;99.90;;;;;;5054548;28;20178;-74
2022/12/08 03:58:26;;;;;;;13.00;6.27;;;5.30;99.90;;;;;;5054663;28;20205;-74
2022/12/08 04:00:51;;;;;;;10.93;6.33;;;5.30;99.90;;;;;;5054770;28;20159;-74
2022/12/08 04:03:17;;;;;;;13.07;6.97;;;5.20;99.90;;;;;;5054529;28;20424;-74
2022/12/08 04:05:42;;;;;;;17.73;10.63;;;5.20;99.90;;;;;;5054368;28;20179;-75
2022/12/08 04:08:08;;;;;;;10.73;6.20;;;5.30;99.90;;;;;;5054512;28;20175;-74
2022/12/08 04:10:33;;;;;;;9.90;6.27;;;5.30;99.90;;;;;;5054681;28;20178;-74
2022/12/08 04:12:59;;;;;;;9.03;6.70;;;5.30;99.90;;;;;;5054402;28;20191;-75
2022/12/08 04:15:24;;;;;;;6.47;5.23;;;5.30;99.90;;;;;;5053864;28;20224;-74
2022/12/08 04:17:50;;;;;;;9.13;5.83;;;5.30;99.90;;;;;;5054221;28;20191;-74
2022/12/08 04:20:15;;;;;;;9.73;5.90;;;5.30;99.90;;;;;;5053016;28;20160;-74
2022/12/08 04:22:41;;;;;;;9.57;7.27;;;5.20;99.90;;;;;;5054237;28;20183;-75
2022/12/08 04:25:06;;;;;;;9.00;5.50;;;5.20;99.90;;;;;;5052786;28;20163;-75
2022/12/08 04:27:32;;;;;;;10.20;7.17;;;5.20;99.90;;;;;;5052987;28;20174;-75
2022/12/08 04:29:57;;;;;;;8.20;5.57;;;5.20;99.90;;;;;;5054083;28;20174;-74
2022/12/08 04:32:23;;;;;;;8.03;5.03;;;5.10;99.90;;;;;;5052315;28;20217;-74
2022/12/08 04:34:48;;;;;;;11.50;6.70;;;5.10;99.90;;;;;;5053845;28;20175;-75
2022/12/08 04:37:14;;;;;;;10.67;5.20;;;5.10;99.90;;;;;;5053878;28;20201;-75
2022/12/08 04:39:39;;;;;;;9.83;6.30;;;5.00;99.90;;;;;;5052761;28;20178;-75
2022/12/08 04:42:05;;;;;;;9.37;5.93;;;5.00;99.90;;;;;;5054049;28;20855;-74
2022/12/08 04:44:30;;;;;;;9.10;6.60;;;4.90;99.90;;;;;;5053632;28;20191;-75
2022/12/08 04:46:56;;;;;;;8.97;5.60;;;4.90;99.90;;;;;;5053884;28;20225;-74
2022/12/08 04:49:22;;;;;;;11.73;6.63;;;4.80;99.90;;;;;;5053831;28;20167;-75
2022/12/08 04:51:48;;;;;;;8.90;5.63;;;4.90;99.90;;;;;;5053716;28;20201;-75
2022/12/08 04:54:13;;;;;;;12.20;7.60;;;4.90;99.90;;;;;;5052152;28;20453;-74
2022/12/08 04:56:39;;;;;;;12.30;7.77;;;4.80;99.90;;;;;;5053636;28;20205;-74
2022/12/08 04:59:04;;;;;;;11.47;6.43;;;4.90;99.90;;;;;;5053662;28;20166;-75
2022/12/08 05:01:30;;;;;;;9.13;6.83;;;4.90;99.90;;;;;;5053610;28;20229;-75
2022/12/08 05:03:55;;;;;;;11.87;7.60;;;4.90;99.90;;;;;;5053417;28;20193;-75
2022/12/08 05:06:21;;;;;;;13.63;7.90;;;4.80;99.90;;;;;;5051872;28;20624;-75
2022/12/08 05:08:47;;;;;;;13.33;9.07;;;4.80;99.90;;;;;;5052151;28;20220;-75
2022/12/08 05:11:12;;;;;;;13.47;8.00;;;4.80;99.90;;;;;;5053337;28;20163;-75
2022/12/08 05:13:38;;;;;;;11.30;6.17;;;4.80;99.90;;;;;;5053289;28;20190;-75
2022/12/08 05:16:12;;;;;;;14.63;8.30;;;4.80;99.90;;;;;;5051596;28;20816;-75
2022/12/08 05:18:39;;;;;;;41.53;21.63;;;4.80;99.90;;;;;;5053262;28;20340;-76
2022/12/08 05:21:06;;;;;;;17.90;9.70;;;4.90;99.90;;;;;;5053094;28;20413;-75
2022/12/08 05:23:32;;;;;;;18.23;9.53;;;4.90;99.90;;;;;;5053118;28;20422;-75
2022/12/08 05:25:57;;;;;;;16.63;9.60;;;4.90;99.90;;;;;;5052806;28;20766;-75
2022/12/08 05:28:23;;;;;;;12.60;8.60;;;4.90;99.90;;;;;;5052831;28;20421;-75
2022/12/08 05:30:49;;;;;;;15.40;9.20;;;4.90;99.90;;;;;;5052816;28;20262;-75
2022/12/08 05:33:14;;;;;;;15.17;9.90;;;4.80;99.90;;;;;;5051653;28;20533;-75
2022/12/08 05:35:40;;;;;;;18.97;10.70;;;4.80;99.90;;;;;;5051322;28;20224;-75
2022/12/08 05:38:06;;;;;;;22.00;9.43;;;4.80;99.90;;;;;;5052841;28;20286;-75
2022/12/08 05:40:31;;;;;;;17.13;11.40;;;4.80;99.90;;;;;;5053023;28;20174;-75
2022/12/08 05:42:58;;;;;;;30.33;11.43;;;4.70;99.90;;;;;;5054169;28;20820;-76
2022/12/08 05:45:23;;;;;;;14.67;10.30;;;4.70;99.90;;;;;;5053117;28;20469;-76
2022/12/08 05:47:51;;;;;;;18.33;10.93;;;4.70;99.90;;;;;;5053258;28;20251;-75
2022/12/08 05:50:17;;;;;;;20.27;11.27;;;4.80;99.90;;;;;;5052713;28;20277;-75
2022/12/08 05:52:42;;;;;;;15.23;11.57;;;4.80;99.90;;;;;;5051435;28;20902;-76
2022/12/08 05:55:08;;;;;;;15.23;10.60;;;4.80;99.90;;;;;;5051307;28;20174;-76
2022/12/08 05:57:34;;;;;;;17.70;9.30;;;4.80;99.90;;;;;;5053257;28;20190;-76
2022/12/08 05:59:59;;;;;;;25.67;11.23;;;4.80;99.90;;;;;;5053803;28;20397;-76
2022/12/08 06:02:25;;;;;;;14.80;10.00;;;4.80;99.90;;;;;;5052001;28;20496;-75
2022/12/08 06:04:51;;;;;;;26.63;10.50;;;4.90;99.90;;;;;;5052177;28;20163;-75
2022/12/08 06:07:16;;;;;;;23.23;12.10;;;4.90;99.90;;;;;;5052362;28;20451;-75
2022/12/08 06:09:42;;;;;;;24.23;12.30;;;4.90;99.90;;;;;;5051190;28;20182;-74
2022/12/08 06:12:10;;;;;;;19.33;9.57;;;4.90;99.90;;;;;;5052254;28;20236;-75
2022/12/08 06:14:37;;;;;;;17.67;9.40;;;4.90;99.90;;;;;;5051941;28;20440;-74
2022/12/08 06:17:03;;;;;;;12.50;9.00;;;4.90;99.90;;;;;;5050875;28;20453;-75
2022/12/08 06:19:28;;;;;;;21.10;10.67;;;4.90;99.90;;;;;;5053366;28;20425;-76
2022/12/08 06:21:54;;;;;;;18.63;9.67;;;4.90;99.90;;;;;;5052213;28;20166;-76
2022/12/08 06:24:19;;;;;;;13.07;9.10;;;4.90;99.90;;;;;;5052599;28;20198;-77
2022/12/08 06:26:45;;;;;;;9.73;8.73;;;4.90;99.90;;;;;;5052598;28;20167;-75
2022/12/08 06:29:12;;;;;;;17.53;9.77;;;4.90;99.90;;;;;;5051479;28;20713;-75
2022/12/08 06:31:37;;;;;;;10.73;8.23;;;4.90;99.90;;;;;;5050817;28;20433;-75
2022/12/08 06:34:03;;;;;;;16.50;11.20;;;4.90;99.90;;;;;;5051834;28;20832;-75
2022/12/08 06:36:29;;;;;;;17.63;9.00;;;4.90;99.90;;;;;;5052886;28;20169;-77
2022/12/08 06:38:55;;;;;;;14.53;8.80;;;4.90;99.90;;;;;;5053055;28;20405;-74
2022/12/08 06:41:21;;;;;;;16.87;9.30;;;4.90;99.90;;;;;;5051936;28;20167;-75
2022/12/08 06:43:46;;;;;;;14.73;8.33;;;4.90;99.90;;;;;;5051784;28;20490;-75
2022/12/08 06:46:15;;;;;;;16.97;10.53;;;4.90;99.90;;;;;;5051587;28;20167;-75
2022/12/08 06:48:40;;;;;;;16.40;9.57;;;5.00;99.90;;;;;;5051887;28;20588;-73
2022/12/08 06:51:14;;;;;;;21.57;9.60;;;5.00;99.90;;;;;;5051596;28;20528;-74
2022/12/08 06:53:41;;;;;;;18.33;10.07;;;5.00;99.90;;;;;;5050478;28;20197;-74
2022/12/08 06:56:08;;;;;;;17.10;9.20;;;4.90;99.90;;;;;;5053748;28;20405;-73
2022/12/08 06:58:34;;;;;;;14.33;8.70;;;4.90;99.90;;;;;;5055860;28;21142;-74
2022/12/08 07:01:08;;;;;;;13.73;9.17;;;4.90;99.90;;;;;;5054330;28;20405;-74
2022/12/08 07:03:34;;;;;;;15.60;9.60;;;4.90;99.90;;;;;;5054757;28;20274;-76
2022/12/08 07:06:00;;;;;;;23.33;9.87;;;4.90;99.90;;;;;;5054257;28;20401;-76
2022/12/08 07:08:25;;;;;;;14.20;8.50;;;4.90;99.90;;;;;;5054460;28;20409;-76
2022/12/08 07:10:51;;;;;;;13.37;8.53;;;4.90;99.90;;;;;;5055405;28;20167;-76
2022/12/08 07:13:16;;;;;;;19.80;8.57;;;4.90;99.90;;;;;;5054146;28;20190;-75
2022/12/08 07:15:42;;;;;;;15.47;9.30;;;4.90;99.90;;;;;;5055234;28;20174;-74
2022/12/08 07:18:07;;;;;;;14.97;9.53;;;4.90;99.90;;;;;;5055227;28;20198;-74
2022/12/08 07:20:33;;;;;;;16.90;9.10;;;4.90;99.90;;;;;;5055242;28;20198;-75
2022/12/08 07:22:58;;;;;;;17.50;9.90;;;4.90;99.90;;;;;;5055207;28;20201;-75
2022/12/08 07:25:24;;;;;;;15.00;8.57;;;4.90;99.90;;;;;;5054997;28;20232;-75
2022/12/08 07:27:51;;;;;;;12.27;8.23;;;4.90;99.90;;;;;;5055556;28;20236;-76
2022/12/08 07:30:17;;;;;;;14.87;9.70;;;4.90;99.90;;;;;;5053926;28;20178;-75
2022/12/08 07:32:42;;;;;;;14.80;9.50;;;4.90;99.90;;;;;;5055392;28;20429;-76
2022/12/08 07:35:08;;;;;;;13.17;6.63;;;4.90;99.90;;;;;;5057017;28;20175;-76
2022/12/08 07:37:36;;;;;;;12.43;7.20;;;4.90;99.90;;;;;;5055917;28;20444;-76
2022/12/08 07:40:03;;;;;;;7.97;5.73;;;4.90;99.90;;;;;;5056369;28;20549;-76
2022/12/08 07:42:28;;;;;;;10.23;7.07;;;4.80;99.90;;;;;;5053760;28;20420;-75
2022/12/08 07:44:54;;;;;;;13.87;7.87;;;4.80;99.90;;;;;;5055098;28;20405;-75
2022/12/08 07:47:19;;;;;;;15.40;9.40;;;4.70;99.90;;;;;;5054926;28;20199;-75
2022/12/08 07:49:45;;;;;;;11.50;7.13;;;4.70;99.90;;;;;;5054921;28;20745;-75
2022/12/08 07:52:10;;;;;;;13.97;11.20;;;4.60;99.90;;;;;;5054898;28;20712;-74
2022/12/08 07:54:36;;;;;;;16.13;8.90;;;4.60;99.90;;;;;;5054423;28;20548;-74
2022/12/08 07:57:02;;;;;;;16.03;9.93;;;4.70;99.90;;;;;;5054682;28;20205;-77
2022/12/08 07:59:28;;;;;;;13.80;9.80;;;4.70;99.90;;;;;;5055854;28;20169;-74
2022/12/08 08:01:54;;;;;;;12.40;7.93;;;4.70;99.90;;;;;;5054551;28;20409;-75
2022/12/08 08:04:19;;;;;;;18.57;9.07;;;4.60;99.90;;;;;;5054296;28;20425;-73
2022/12/08 08:06:45;;;;;;;16.03;7.73;;;4.60;99.90;;;;;;5052580;28;20545;-73
2022/12/08 08:09:10;;;;;;;14.93;8.77;;;4.50;99.90;;;;;;5054532;28;20175;-76
2022/12/08 08:11:36;;;;;;;16.83;8.17;;;4.50;99.90;;;;;;5053255;28;20170;-76
2022/12/08 08:14:02;;;;;;;12.20;7.87;;;4.50;99.90;;;;;;5054445;28;20187;-76
2022/12/08 08:16:27;;;;;;;14.83;8.23;;;4.50;99.90;;;;;;5053686;28;20182;-74
2022/12/08 08:18:53;;;;;;;10.93;8.20;;;4.60;99.90;;;;;;5055435;28;20487;-76
2022/12/08 08:21:20;;;;;;;14.87;8.20;;;4.60;99.90;;;;;;5054024;28;20167;-75
2022/12/08 08:23:45;;;;;;;14.10;8.67;;;4.70;99.90;;;;;;5052799;28;20245;-75
2022/12/08 08:26:11;;;;;;;9.60;7.73;;;4.70;99.90;;;;;;5054006;28;20397;-76
2022/12/08 08:28:37;;;;;;;17.90;8.60;;;4.60;99.90;;;;;;5054242;28;20597;-75
2022/12/08 08:31:02;;;;;;;18.07;8.17;;;4.60;99.90;;;;;;5054192;28;20197;-76
2022/12/08 08:33:28;;;;;;;9.23;7.20;;;4.60;99.90;;;;;;5054070;28;20675;-76
2022/12/08 08:35:54;;;;;;;10.80;8.43;;;4.60;99.90;;;;;;5054449;28;20163;-76
2022/12/08 08:38:20;;;;;;;9.50;7.10;;;4.60;99.90;;;;;;5053948;28;20543;-76
2022/12/08 08:40:45;;;;;;;12.77;7.47;;;4.60;99.90;;;;;;5053995;28;20402;-75
2022/12/08 08:43:27;;;;;;;10.57;6.90;;;4.50;99.90;;;;;;5053893;28;20183;-75
2022/12/08 08:45:59;;;;;;;15.23;9.00;;;4.50;99.90;;;;;;5053740;28;20193;-74
2022/12/08 08:48:26;;;;;;;20.70;7.87;;;4.50;99.90;;;;;;5053777;28;20414;-76
2022/12/08 08:50:52;;;;;;;11.47;6.20;;;4.50;99.90;;;;;;5053930;28;20823;-76
2022/12/08 08:53:17;;;;;;;10.57;5.80;;;4.40;99.90;;;;;;5053707;28;20453;-75
2022/12/08 08:55:43;;;;;;;12.40;6.10;;;4.50;99.90;;;;;;5053608;28;20174;-76
2022/12/08 08:58:08;;;;;;;12.50;7.60;;;4.50;99.90;;;;;;5053810;28;20198;-75
2022/12/08 09:00:34;;;;;;;11.33;6.00;;;4.50;99.90;;;;;;5053630;28;20242;-75
2022/12/08 09:02:59;;;;;;;7.87;5.93;;;4.50;99.90;;;;;;5053617;28;20187;-74
2022/12/08 09:05:25;;;;;;;12.43;6.10;;;4.50;99.90;;;;;;5053296;28;20198;-74
2022/12/08 09:07:50;;;;;;;8.70;5.23;;;4.50;99.90;;;;;;5053608;28;20174;-74
2022/12/08 09:10:16;;;;;;;10.40;5.57;;;4.60;99.90;;;;;;5053414;28;20171;-75
2022/12/08 09:12:41;;;;;;;11.90;6.10;;;4.60;99.90;;;;;;5053903;28;20194;-76
2022/12/08 09:15:07;;;;;;;8.70;5.30;;;4.50;99.90;;;;;;5053352;28;20182;-76
2022/12/08 09:17:33;;;;;;;7.37;5.80;;;4.60;99.90;;;;;;5053762;28;20187;-76
2022/12/08 09:20:00;;;;;;;10.90;5.07;;;4.60;99.90;;;;;;5054164;28;20167;-76
2022/12/08 09:22:25;;;;;;;9.70;5.90;;;4.60;99.90;;;;;;5053255;28;20221;-75
2022/12/08 09:24:51;;;;;;;7.83;5.90;;;4.60;99.90;;;;;;5052573;28;20402;-75
2022/12/08 09:27:16;;;;;;;12.63;6.53;;;4.60;99.90;;;;;;5052397;28;20445;-74
2022/12/08 09:29:42;;;;;;;7.60;5.63;;;4.60;99.90;;;;;;5053118;28;20705;-74
2022/12/08 09:32:08;;;;;;;8.10;5.83;;;4.70;99.90;;;;;;5052983;28;20183;-75
2022/12/08 09:34:33;;;;;;;11.97;5.00;;;4.70;99.90;;;;;;5053709;28;20179;-75
2022/12/08 09:36:59;;;;;;;13.47;6.07;;;4.70;99.90;;;;;;5053385;28;20198;-75
2022/12/08 09:39:24;;;;;;;25.17;14.13;;;4.80;99.90;;;;;;5054341;28;20628;-76
2022/12/08 09:42:01;;;;;;;7.20;4.77;;;4.80;99.90;;;;;;5053106;28;20167;-76
2022/12/08 09:44:58;;;;;;;6.07;3.93;;;4.80;99.90;;;;;;5052285;28;20223;-76
2022/12/08 09:47:43;;;;;;;4.47;3.30;;;4.70;99.90;;;;;;5051606;28;20838;-74
2022/12/08 09:50:14;;;;;;;5.90;3.20;;;4.70;99.90;;;;;;5052733;28;20990;-74
2022/12/08 09:52:55;;;;;;;4.53;3.40;;;4.70;99.90;;;;;;5052606;28;21014;-74
2022/12/08 09:55:34;;;;;;;5.97;3.70;;;4.70;99.90;;;;;;5052236;28;20505;-75
2022/12/08 09:58:01;;;;;;;6.10;4.40;;;4.70;99.90;;;;;;5052390;28;20883;-75
2022/12/08 10:00:27;;;;;;;4.67;3.10;;;4.60;99.90;;;;;;5052088;28;20441;-74
2022/12/08 10:02:54;;;;;;;5.83;3.93;;;4.70;99.90;;;;;;5052118;28;21090;-75
2022/12/08 10:05:22;;;;;;;7.87;4.00;;;4.70;99.90;;;;;;5052166;28;20542;-74
2022/12/08 10:08:01;;;;;;;5.83;4.53;;;4.70;99.90;;;;;;5050008;28;20504;-74
2022/12/08 10:10:51;;;;;;;8.23;4.17;;;4.80;99.90;;;;;;5051920;28;20413;-74
2022/12/08 10:13:42;;;;;;;6.93;5.10;;;4.80;99.90;;;;;;5051427;28;20428;-74
2022/12/08 10:16:20;;;;;;;7.90;5.00;;;4.90;99.90;;;;;;5050152;28;20768;-78
2022/12/08 10:18:51;;;;;;;18.53;5.07;;;4.90;99.90;;;;;;5051606;28;20984;-75
2022/12/08 10:21:21;;;;;;;10.67;6.40;;;4.90;99.90;;;;;;5051380;28;20805;-74
2022/12/08 10:24:07;;;;;;;9.63;4.80;;;4.90;99.90;;;;;;5051146;28;20417;-73
2022/12/08 10:26:32;;;;;;;8.20;5.50;;;4.90;99.90;;;;;;5051099;28;20396;-76
2022/12/08 10:29:01;;;;;;;11.50;6.53;;;4.90;99.90;;;;;;5051503;28;20402;-74
2022/12/08 10:31:29;;;;;;;7.73;5.40;;;4.90;99.90;;;;;;5050817;28;20636;-75
2022/12/08 10:34:14;;;;;;;11.07;4.77;;;5.00;99.90;;;;;;5051635;28;20435;-76
2022/12/08 10:36:52;;;;;;;8.30;4.90;;;5.00;99.90;;;;;;5051167;28;20805;-74
2022/12/08 10:39:28;;;;;;;15.13;5.97;;;5.10;99.90;;;;;;5050456;28;20870;-74
2022/12/08 10:42:15;;;;;;;15.23;4.83;;;5.10;99.90;;;;;;5050358;28;20404;-75
2022/12/08 10:44:56;;;;;;;10.43;6.40;;;5.10;99.90;;;;;;5051386;28;20964;-74
2022/12/08 10:47:24;;;;;;;8.80;4.77;;;5.20;99.90;;;;;;5051520;28;20385;-75
2022/12/08 10:50:05;;;;;;;10.80;4.90;;;5.20;99.90;;;;;;5052115;28;20410;-76
2022/12/08 10:52:31;;;;;;;7.17;5.07;;;5.10;99.90;;;;;;5051687;28;20782;-76
2022/12/08 10:54:59;;;;;;;11.07;4.70;;;5.10;99.90;;;;;;5052753;28;20401;-75
2022/12/08 10:57:24;;;;;;;7.50;4.17;;;5.10;99.90;;;;;;5053068;28;20183;-76
2022/12/08 10:59:54;;;;;;;8.90;6.13;;;5.10;99.90;;;;;;5051938;28;20562;-76
2022/12/08 11:02:20;;;;;;;7.20;4.87;;;5.10;99.90;;;;;;5053240;28;20244;-75
2022/12/08 11:04:46;;;;;;;8.70;4.23;;;5.00;99.90;;;;;;5052476;28;20941;-75
2022/12/08 11:07:20;;;;;;;5.90;3.40;;;5.00;99.90;;;;;;5053032;28;20644;-74
2022/12/08 11:09:49;;;;;;;6.73;3.83;;;5.10;99.90;;;;;;5051546;28;20777;-76
2022/12/08 11:12:16;;;;;;;6.87;4.80;;;5.10;99.90;;;;;;5051685;28;20496;-76
2022/12/08 11:14:42;;;;;;;8.77;4.90;;;5.20;99.90;;;;;;5051194;28;20429;-75
2022/12/08 11:17:13;;;;;;;8.33;4.90;;;5.20;99.90;;;;;;5050158;28;20996;-75
2022/12/08 11:19:41;;;;;;;4.77;3.50;;;5.20;99.90;;;;;;5051646;28;20258;-74
2022/12/08 11:22:28;;;;;;;9.60;3.80;;;5.20;99.90;;;;;;5050159;28;20463;-74
2022/12/08 11:25:02;;;;;;;6.30;3.70;;;5.30;99.90;;;;;;5051291;28;20406;-75
2022/12/08 11:27:28;;;;;;;5.10;3.27;;;5.30;99.90;;;;;;5052117;28;20409;-75
2022/12/08 11:29:54;;;;;;;5.70;2.93;;;5.40;99.90;;;;;;5052809;28;20409;-76
2022/12/08 11:32:20;;;;;;;7.10;4.10;;;5.40;99.90;;;;;;5051398;28;20433;-76
2022/12/08 11:34:54;;;;;;;4.33;3.10;;;5.40;99.90;;;;;;5050978;28;20438;-76
2022/12/08 11:37:36;;;;;;;4.47;3.27;;;5.40;99.90;;;;;;5052544;28;20507;-75
2022/12/08 11:40:18;;;;;;;5.37;4.60;;;5.50;99.90;;;;;;5051591;28;20460;-75
2022/12/08 11:43:22;;;;;;;6.67;4.20;;;5.60;99.90;;;;;;5052390;28;21111;-76
2022/12/08 11:46:08;;;;;;;4.80;3.57;;;5.70;99.90;;;;;;5055875;28;20405;-76
2022/12/08 11:48:47;;;;;;;8.10;4.60;;;5.80;99.90;;;;;;5054594;28;20413;-76
2022/12/08 11:51:18;;;;;;;8.77;4.70;;;6.00;99.90;;;;;;5055937;28;20405;-76
2022/12/08 11:53:50;;;;;;;6.97;4.57;;;6.20;99.90;;;;;;5055311;28;20429;-76
2022/12/08 11:56:23;;;;;;;14.63;5.03;;;6.20;99.90;;;;;;5054630;28;20473;-76
2022/12/08 11:58:57;;;;;;;8.33;4.90;;;6.20;99.90;;;;;;5055445;28;20452;-76
2022/12/08 12:01:25;;;;;;;8.17;4.80;;;6.30;99.90;;;;;;5055397;28;20918;-76
2022/12/08 12:04:36;;;;;;;11.40;3.97;;;6.40;99.90;;;;;;5053614;28;20436;-76
2022/12/08 12:07:10;;;;;;;10.30;4.93;;;6.40;99.90;;;;;;5052679;28;20428;-76
2022/12/08 12:10:12;;;;;;;10.53;4.70;;;6.50;99.90;;;;;;5054066;28;20484;-76
2022/12/08 12:13:13;;;;;;;13.13;5.23;;;6.40;99.90;;;;;;5054869;28;20405;-76
2022/12/08 12:15:55;;;;;;;7.40;4.80;;;6.40;99.90;;;;;;5051166;28;20421;-76
2022/12/08 12:18:51;;;;;;;8.40;4.77;;;6.30;99.90;;;;;;5053320;28;20462;-76
2022/12/08 12:21:20;;;;;;;7.30;5.30;;;6.20;99.90;;;;;;5054034;28;20424;-76
2022/12/08 12:23:53;;;;;;;5.47;3.87;;;6.10;99.90;;;;;;5054460;28;20425;-76
2022/12/08 12:26:30;;;;;;;10.43;5.67;;;6.10;99.90;;;;;;5054429;28;20400;-76
2022/12/08 12:29:06;;;;;;;11.37;5.87;;;6.10;99.90;;;;;;5054498;28;20397;-76
2022/12/08 12:31:40;;;;;;;5.23;4.30;;;6.10;99.90;;;;;;5054438;28;20486;-76
2022/12/08 12:34:32;;;;;;;10.97;5.53;;;6.00;99.90;;;;;;5054603;28;20950;-76
2022/12/08 12:37:11;;;;;;;11.73;5.27;;;6.00;99.90;;;;;;5054664;28;20445;-76
2022/12/08 12:40:00;;;;;;;7.30;4.10;;;6.20;99.90;;;;;;5054693;28;20841;-76
2022/12/08 12:42:37;;;;;;;7.27;4.73;;;6.20;99.90;;;;;;5054360;28;20397;-76
2022/12/08 12:45:30;;;;;;;9.10;5.00;;;6.20;99.90;;;;;;5052990;28;20409;-76
2022/12/08 12:47:55;;;;;;;6.43;4.67;;;6.30;99.90;;;;;;5051404;28;20472;-76
2022/12/08 12:50:33;;;;;;;7.87;5.10;;;6.30;99.90;;;;;;5054611;28;20410;-76
2022/12/08 12:53:09;;;;;;;11.50;5.17;;;6.50;99.90;;;;;;5053984;28;20244;-76
2022/12/08 12:56:02;;;;;;;7.37;4.53;;;6.70;99.90;;;;;;5053382;28;20397;-76
2022/12/08 12:58:28;;;;;;;5.10;3.40;;;6.80;99.90;;;;;;5054573;28;20475;-76
2022/12/08 13:01:11;;;;;;;7.20;3.93;;;6.90;99.90;;;;;;5054461;28;20397;-76
2022/12/08 13:03:40;;;;;;;7.03;3.80;;;6.90;99.90;;;;;;5052991;28;20496;-76
2022/12/08 13:06:10;;;;;;;6.67;4.17;;;6.90;99.90;;;;;;5054140;28;20398;-76
2022/12/08 13:08:48;;;;;;;8.47;4.30;;;7.00;99.90;;;;;;5052836;28;20492;-76